Time;durP1;ratioP1;P1;durP2;ratioP2;P2;SDS_P1;SDS_P2;PMS_P1;PMS_P2;Temp;Humidity;BMP_temperature;BMP_pressure;BME280_temperature;BME280_humidity;BME280_pressure;Samples;Min_cycle;Max_cycle;Signal;HPM_P1;HPM_P2
2024/01/20 00:00:31;;;;;;;18.60;10.32;;;-1.80;99.90;;;-3.09;100.00;98254.75;4978084;28;20041;-36
2024/01/20 00:02:56;;;;;;;17.55;9.95;;;-1.70;99.90;;;-2.91;100.00;98286.31;4977488;28;20042;-36
2024/01/20 00:05:22;;;;;;;21.25;10.23;;;-1.70;99.90;;;-2.92;100.00;98288.84;4976496;28;20136;-36
2024/01/20 00:07:48;;;;;;;19.73;10.27;;;-1.70;99.90;;;-2.96;100.00;98282.72;4977535;28;20049;-36
2024/01/20 00:10:13;;;;;;;20.40;10.82;;;-1.70;99.90;;;-2.93;100.00;98277.59;4984866;28;20046;-36
2024/01/20 00:12:41;;;;;;;17.98;10.82;;;-1.80;99.90;;;-2.93;100.00;98275.03;4976271;28;20141;-36
2024/01/20 00:15:08;;;;;;;22.50;10.45;;;-1.70;99.90;;;-2.95;100.00;98274.13;4979592;28;20040;-36
2024/01/20 00:17:36;;;;;;;18.95;10.15;;;-1.80;99.90;;;-2.95;100.00;98274.13;4980008;28;20030;-36
2024/01/20 00:20:04;;;;;;;21.08;11.10;;;-1.80;99.90;;;-2.94;100.00;98278.47;4987068;28;20029;-36
2024/01/20 00:22:29;;;;;;;18.13;9.93;;;-1.80;99.90;;;-2.92;100.00;98276.78;4979972;28;20045;-36
2024/01/20 00:24:59;;;;;;;21.67;11.15;;;-1.80;99.90;;;-2.92;100.00;98284.53;4982490;23;20592;-34
2024/01/20 00:27:25;;;;;;;24.33;11.57;;;-1.80;99.90;;;-2.96;100.00;98282.72;4966949;28;20623;-35
2024/01/20 00:29:51;;;;;;;21.90;10.85;;;-1.80;99.90;;;-2.97;100.00;98285.22;4971517;28;20050;-35
2024/01/20 00:32:17;;;;;;;23.55;12.27;;;-1.80;99.90;;;-2.98;100.00;98279.22;4975904;28;20073;-34
2024/01/20 00:34:42;;;;;;;20.55;10.95;;;-1.80;99.90;;;-2.97;100.00;98268.03;4972769;28;20049;-35
2024/01/20 00:37:08;;;;;;;22.75;11.55;;;-1.80;99.90;;;-2.99;100.00;98274.84;4973468;28;20073;-35
2024/01/20 00:39:34;;;;;;;22.42;11.73;;;-1.80;99.90;;;-3.01;100.00;98284.25;4975697;28;20042;-35
2024/01/20 00:42:00;;;;;;;22.77;10.80;;;-1.80;99.90;;;-3.06;100.00;98275.50;4975499;28;20054;-35
2024/01/20 00:44:26;;;;;;;20.65;11.02;;;-1.80;99.90;;;-3.04;100.00;98288.47;4973605;28;20034;-35
2024/01/20 00:46:52;;;;;;;25.77;11.68;;;-1.90;99.90;;;-3.12;100.00;98281.34;4975332;28;20092;-34
2024/01/20 00:49:17;;;;;;;23.27;11.60;;;-1.90;99.90;;;-3.11;100.00;98290.81;4975494;28;20406;-35
2024/01/20 00:51:43;;;;;;;22.67;10.80;;;-1.90;99.90;;;-3.22;100.00;98286.19;4974792;28;20038;-35
2024/01/20 00:54:09;;;;;;;19.88;10.25;;;-2.00;99.90;;;-3.26;100.00;98288.66;4976623;28;20061;-35
2024/01/20 00:56:35;;;;;;;20.63;10.93;;;-2.10;99.90;;;-3.34;100.00;98284.97;4968880;28;20034;-35
2024/01/20 00:59:00;;;;;;;21.63;11.90;;;-2.10;99.90;;;-3.36;100.00;98291.75;4964634;28;20704;-35
2024/01/20 01:01:26;;;;;;;20.10;10.65;;;-2.20;99.90;;;-3.44;100.00;98298.38;4964890;28;20616;-35
2024/01/20 01:03:52;;;;;;;21.98;11.20;;;-2.20;99.90;;;-3.58;100.00;98291.91;4966863;28;20030;-34
2024/01/20 01:06:17;;;;;;;21.52;10.88;;;-2.30;99.90;;;-3.49;100.00;98292.19;4969408;28;20045;-36
2024/01/20 01:08:43;;;;;;;21.95;11.95;;;-2.30;99.90;;;-3.42;100.00;98289.00;4974097;28;20685;-37
2024/01/20 01:11:09;;;;;;;22.40;11.43;;;-2.30;99.90;;;-3.40;100.00;98300.22;4978458;28;20176;-34
2024/01/20 01:13:37;;;;;;;20.77;11.30;;;-2.20;99.90;;;-3.44;100.00;98300.97;4969625;28;20505;-36
2024/01/20 01:16:04;;;;;;;25.17;11.48;;;-2.20;99.90;;;-3.36;100.00;98298.63;4968012;28;20038;-35
2024/01/20 01:18:30;;;;;;;24.67;12.63;;;-2.20;99.90;;;-3.42;100.00;98301.03;4968697;28;20034;-36
2024/01/20 01:20:55;;;;;;;22.02;12.10;;;-2.20;99.90;;;-3.48;100.00;98293.97;4969283;28;20474;-35
2024/01/20 01:23:21;;;;;;;21.98;12.35;;;-2.30;99.90;;;-3.47;100.00;98300.84;4968715;28;20034;-35
2024/01/20 01:25:47;;;;;;;21.50;11.98;;;-2.30;99.90;;;-3.47;100.00;98303.44;4971330;28;20042;-35
2024/01/20 01:28:12;;;;;;;23.83;11.82;;;-2.30;99.90;;;-3.47;100.00;98306.00;4969344;28;20379;-35
2024/01/20 01:30:38;;;;;;;22.38;12.05;;;-2.30;99.90;;;-3.55;100.00;98315.19;4980157;28;20037;-35
2024/01/20 01:33:04;;;;;;;26.92;12.48;;;-2.30;99.90;;;-3.60;100.00;98314.19;4976709;28;20038;-35
2024/01/20 01:35:29;;;;;;;23.13;12.30;;;-2.40;99.90;;;-3.60;100.00;98321.91;4978472;28;20197;-36
2024/01/20 01:37:58;;;;;;;22.50;11.80;;;-2.40;99.90;;;-3.59;100.00;98326.22;4968761;28;20555;-36
2024/01/20 01:40:25;;;;;;;24.08;12.18;;;-2.40;99.90;;;-3.58;100.00;98328.88;4974525;28;20487;-36
2024/01/20 01:42:56;;;;;;;24.98;12.68;;;-2.40;99.90;;;-3.57;100.00;98338.38;4969124;28;20030;-36
2024/01/20 01:45:25;;;;;;;23.95;12.38;;;-2.40;99.90;;;-3.58;100.00;98335.75;4967946;28;20066;-36
2024/01/20 01:47:55;;;;;;;22.85;12.43;;;-2.40;99.90;;;-3.65;100.00;98326.91;4966096;28;20042;-36
2024/01/20 01:50:21;;;;;;;25.73;12.75;;;-2.40;99.90;;;-3.56;100.00;98326.34;4968547;28;20225;-36
2024/01/20 01:52:48;;;;;;;22.75;12.52;;;-2.40;99.90;;;-3.60;100.00;98327.06;4976441;28;20113;-37
2024/01/20 01:55:15;;;;;;;23.67;12.27;;;-2.40;99.90;;;-3.59;100.00;98321.94;4969269;28;20032;-36
2024/01/20 01:57:42;;;;;;;26.35;13.18;;;-2.40;99.90;;;-3.61;100.00;98318.44;4975234;28;20065;-36
2024/01/20 02:00:09;;;;;;;25.83;12.82;;;-2.40;99.90;;;-3.66;100.00;98328.63;4967998;28;20034;-35
2024/01/20 02:02:35;;;;;;;24.20;12.05;;;-2.40;99.90;;;-3.67;100.00;98324.28;4968018;28;20037;-35
2024/01/20 02:05:01;;;;;;;22.42;11.85;;;-2.40;99.90;;;-3.72;100.00;98325.81;4966746;28;20564;-35
2024/01/20 02:07:29;;;;;;;31.98;15.25;;;-2.50;99.90;;;-3.75;100.00;98318.00;4959166;28;20498;-35
2024/01/20 02:09:55;;;;;;;27.33;13.18;;;-2.50;99.90;;;-3.77;100.00;98313.59;4978042;28;20082;-35
2024/01/20 02:12:21;;;;;;;28.38;13.63;;;-2.50;99.90;;;-3.76;100.00;98311.06;4975365;28;20034;-35
2024/01/20 02:14:47;;;;;;;31.10;14.05;;;-2.50;99.90;;;-3.75;100.00;98309.38;4968265;28;20038;-35
2024/01/20 02:17:13;;;;;;;29.48;14.13;;;-2.60;99.90;;;-3.79;100.00;98316.13;4968102;28;20058;-35
2024/01/20 02:19:40;;;;;;;28.48;13.70;;;-2.50;99.90;;;-3.73;100.00;98320.59;4968623;28;20117;-35
2024/01/20 02:22:13;;;;;;;24.08;12.32;;;-2.50;99.90;;;-3.76;100.00;98321.38;4961486;28;20131;-35
2024/01/20 02:24:40;;;;;;;24.23;12.40;;;-2.50;99.90;;;-3.81;100.00;98317.78;4966493;28;20487;-35
2024/01/20 02:27:06;;;;;;;26.90;12.70;;;-2.60;99.90;;;-3.82;100.00;98318.59;4966368;28;20062;-35
2024/01/20 02:29:32;;;;;;;23.55;12.00;;;-2.60;99.90;;;-3.90;100.00;98309.72;4971170;28;20038;-35
2024/01/20 02:31:58;;;;;;;25.52;11.77;;;-2.60;99.90;;;-3.90;100.00;98317.44;4976796;28;20045;-35
2024/01/20 02:34:24;;;;;;;23.63;11.73;;;-2.60;99.90;;;-3.91;100.00;98313.09;4969090;28;20034;-35
2024/01/20 02:36:51;;;;;;;27.08;13.18;;;-2.70;99.90;;;-3.96;100.00;98317.25;4963422;28;23516;-35
2024/01/20 02:39:17;;;;;;;28.38;13.43;;;-2.70;99.90;;;-3.96;100.00;98310.38;4966850;28;20530;-35
2024/01/20 02:41:43;;;;;;;26.27;13.00;;;-2.70;99.90;;;-3.97;100.00;98321.50;4969129;28;20045;-36
2024/01/20 02:44:08;;;;;;;27.80;13.25;;;-2.70;99.90;;;-3.97;100.00;98320.66;4972892;28;20466;-36
2024/01/20 02:46:34;;;;;;;26.27;13.02;;;-2.70;99.90;;;-3.99;100.00;98335.19;4967644;28;20034;-36
2024/01/20 02:49:00;;;;;;;28.48;13.82;;;-2.70;99.90;;;-4.01;100.00;98334.25;4950815;28;20057;-36
2024/01/20 02:51:26;;;;;;;31.88;14.43;;;-2.70;99.90;;;-4.00;100.00;98344.63;4968915;28;20117;-36
2024/01/20 02:53:51;;;;;;;29.25;14.60;;;-2.70;99.90;;;-3.99;100.00;98353.22;4966263;28;20034;-36
2024/01/20 02:56:17;;;;;;;27.17;14.48;;;-2.70;99.90;;;-3.99;100.00;98348.06;4966070;28;20412;-36
2024/01/20 02:58:43;;;;;;;36.40;15.75;;;-2.70;99.90;;;-3.94;100.00;98355.13;4968966;28;20399;-36
2024/01/20 03:01:08;;;;;;;30.67;14.48;;;-2.70;99.90;;;-3.94;100.00;98357.69;4954584;28;20030;-35
2024/01/20 03:03:34;;;;;;;32.45;14.55;;;-2.70;99.90;;;-3.90;100.00;98358.69;4966070;28;20045;-36
2024/01/20 03:06:00;;;;;;;30.42;14.00;;;-2.70;99.90;;;-3.86;100.00;98357.97;4948197;28;20519;-36
2024/01/20 03:08:25;;;;;;;30.65;15.48;;;-2.60;99.90;;;-3.92;100.00;98356.06;4970788;28;20393;-36
2024/01/20 03:10:51;;;;;;;32.17;14.52;;;-2.60;99.90;;;-3.97;100.00;98336.09;4966480;28;20031;-35
2024/01/20 03:13:17;;;;;;;25.65;14.02;;;-2.60;99.90;;;-3.87;100.00;98348.50;4973686;28;20173;-35
2024/01/20 03:15:42;;;;;;;25.52;14.02;;;-2.60;99.90;;;-3.85;100.00;98347.72;4968903;28;20061;-36
2024/01/20 03:18:10;;;;;;;27.92;13.95;;;-2.60;99.90;;;-3.78;100.00;98346.25;4966364;28;20116;-35
2024/01/20 03:20:36;;;;;;;30.92;14.63;;;-2.60;99.90;;;-3.80;100.00;98352.16;4965406;28;20042;-35
2024/01/20 03:23:02;;;;;;;31.10;14.93;;;-2.60;99.90;;;-3.79;100.00;98343.59;4966255;28;21049;-34
2024/01/20 03:25:27;;;;;;;28.02;14.70;;;-2.60;99.90;;;-3.79;100.00;98352.19;4947552;28;20060;-34
2024/01/20 03:27:53;;;;;;;30.60;15.27;;;-2.60;99.90;;;-3.86;100.00;98350.22;4962519;28;20456;-35
2024/01/20 03:30:20;;;;;;;30.17;13.48;;;-2.60;99.90;;;-3.88;100.00;98351.88;4969462;28;20518;-34
2024/01/20 03:32:47;;;;;;;31.30;14.50;;;-2.60;99.90;;;-3.90;100.00;98358.69;4975473;28;20653;-35
2024/01/20 03:35:12;;;;;;;30.10;15.07;;;-2.60;99.90;;;-4.01;100.00;98332.53;4969788;28;20093;-35
2024/01/20 03:37:38;;;;;;;30.13;14.88;;;-2.70;99.90;;;-3.88;100.00;98354.47;4966899;28;20045;-36
2024/01/20 03:40:04;;;;;;;27.30;13.82;;;-2.60;99.90;;;-3.84;100.00;98348.59;4948325;28;20085;-35
2024/01/20 03:42:30;;;;;;;28.13;13.98;;;-2.60;99.90;;;-3.80;100.00;98353.03;4966567;28;20637;-35
2024/01/20 03:44:56;;;;;;;28.10;14.52;;;-2.60;99.90;;;-3.80;100.00;98357.31;4963914;28;20281;-36
2024/01/20 03:47:21;;;;;;;30.48;15.32;;;-2.60;99.90;;;-3.87;100.00;98354.53;4964515;28;20777;-36
2024/01/20 03:49:47;;;;;;;29.67;14.70;;;-2.60;99.90;;;-3.90;100.00;98353.53;4949713;28;20046;-36
2024/01/20 03:52:13;;;;;;;29.38;14.43;;;-2.60;99.90;;;-3.94;100.00;98349.97;4965187;28;20045;-35
2024/01/20 03:54:39;;;;;;;27.67;13.73;;;-2.60;99.90;;;-3.87;100.00;98357.09;4964930;28;20090;-36
2024/01/20 03:57:05;;;;;;;28.70;14.10;;;-2.60;99.90;;;-3.86;100.00;98357.97;4972617;28;20026;-36
2024/01/20 03:59:31;;;;;;;27.60;14.43;;;-2.60;99.90;;;-3.95;100.00;98342.19;4970053;28;20545;-35
2024/01/20 04:01:56;;;;;;;26.83;13.95;;;-2.60;99.90;;;-3.99;100.00;98350.63;4962299;28;20809;-35
2024/01/20 04:04:22;;;;;;;31.77;14.98;;;-2.60;99.90;;;-3.92;100.00;98375.81;4965720;28;20521;-35
2024/01/20 04:06:48;;;;;;;27.00;13.30;;;-2.70;99.90;;;-3.96;100.00;98376.53;4964004;28;20158;-36
2024/01/20 04:09:13;;;;;;;26.95;13.18;;;-2.70;99.90;;;-3.95;100.00;98373.09;4962843;28;20042;-35
2024/01/20 04:11:39;;;;;;;25.67;13.70;;;-2.70;99.90;;;-3.99;100.00;98373.84;4967273;28;20049;-35
2024/01/20 04:14:05;;;;;;;27.20;13.68;;;-2.70;99.90;;;-3.95;100.00;98386.00;4965719;28;20034;-36
2024/01/20 04:16:30;;;;;;;27.50;13.57;;;-2.70;99.90;;;-4.00;100.00;98377.22;4965814;28;20073;-36
2024/01/20 04:18:56;;;;;;;29.02;13.82;;;-2.80;99.90;;;-4.08;100.00;98375.25;4942203;28;20044;-35
2024/01/20 04:21:23;;;;;;;30.40;13.27;;;-2.80;99.90;;;-4.16;100.00;98371.53;4964103;28;20049;-35
2024/01/20 04:23:49;;;;;;;24.02;12.57;;;-2.90;99.90;;;-4.27;100.00;98370.22;4964238;28;20030;-35
2024/01/20 04:26:16;;;;;;;23.23;11.50;;;-3.00;99.90;;;-4.38;100.00;98374.97;4972598;28;20034;-35
2024/01/20 04:28:42;;;;;;;18.85;10.52;;;-3.10;99.90;;;-4.50;100.00;98366.81;4966236;28;20061;-36
2024/01/20 04:31:08;;;;;;;20.38;11.43;;;-3.20;99.90;;;-4.58;100.00;98371.66;4948278;28;20262;-35
2024/01/20 04:33:36;;;;;;;23.08;12.00;;;-3.30;99.90;;;-4.71;100.00;98380.59;4967383;28;20030;-35
2024/01/20 04:36:02;;;;;;;26.55;11.90;;;-3.40;99.90;;;-4.81;100.00;98387.09;4964719;28;20057;-35
2024/01/20 04:38:28;;;;;;;25.27;12.27;;;-3.50;99.90;;;-4.90;100.00;98391.00;4947511;28;20454;-35
2024/01/20 04:40:54;;;;;;;24.45;11.88;;;-3.60;99.90;;;-4.98;100.00;98395.84;4965693;28;20026;-35
2024/01/20 04:43:20;;;;;;;21.40;11.52;;;-3.70;99.90;;;-5.02;100.00;98394.84;4971076;28;20078;-35
2024/01/20 04:45:45;;;;;;;27.92;12.13;;;-3.70;99.90;;;-5.05;100.00;98393.84;4964807;28;20038;-36
2024/01/20 04:48:11;;;;;;;22.92;11.93;;;-3.80;99.90;;;-5.03;100.00;98402.50;4964500;28;20546;-36
2024/01/20 04:50:37;;;;;;;21.00;11.73;;;-3.80;99.90;;;-5.06;100.00;98399.78;4964238;28;20046;-35
2024/01/20 04:53:03;;;;;;;26.08;12.20;;;-3.80;99.90;;;-5.07;100.00;98403.19;4966981;28;20042;-35
2024/01/20 04:55:28;;;;;;;25.77;11.38;;;-3.80;99.90;;;-5.24;100.00;98377.66;4965573;28;20527;-35
2024/01/20 04:57:54;;;;;;;21.30;10.88;;;-3.80;99.90;;;-5.18;100.00;98406.19;4964387;28;20041;-35
2024/01/20 05:00:20;;;;;;;25.50;11.90;;;-3.90;99.90;;;-5.23;100.00;98410.25;4965191;28;20143;-35
2024/01/20 05:02:46;;;;;;;22.73;12.38;;;-3.90;99.90;;;-5.23;100.00;98404.25;4966797;28;20037;-34
2024/01/20 05:05:12;;;;;;;25.88;12.05;;;-3.90;99.90;;;-5.26;100.00;98404.13;4965590;28;20042;-35
2024/01/20 05:07:37;;;;;;;26.55;12.80;;;-4.00;99.90;;;-5.26;100.00;98404.13;4963609;28;20038;-35
2024/01/20 05:10:04;;;;;;;27.05;11.68;;;-3.90;99.90;;;-5.70;100.00;98321.78;4964705;28;20034;-35
2024/01/20 05:12:29;;;;;;;21.25;11.65;;;-3.90;99.90;;;-5.16;100.00;98410.53;4970915;28;23509;-34
2024/01/20 05:14:55;;;;;;;25.90;12.50;;;-3.90;99.90;;;-5.15;100.00;98415.75;4961838;28;20259;-35
2024/01/20 05:17:21;;;;;;;27.27;12.73;;;-3.80;99.90;;;-5.10;100.00;98405.63;4944882;28;20121;-34
2024/01/20 05:19:47;;;;;;;27.15;11.93;;;-3.80;99.90;;;-5.06;100.00;98410.06;4967488;28;20038;-34
2024/01/20 05:22:12;;;;;;;25.70;12.38;;;-3.80;99.90;;;-5.06;100.00;98398.13;4962581;28;20491;-35
2024/01/20 05:24:38;;;;;;;24.17;11.70;;;-3.80;99.90;;;-4.95;100.00;98411.41;4969390;28;20452;-35
2024/01/20 05:27:04;;;;;;;26.15;12.45;;;-3.70;99.90;;;-4.97;100.00;98414.72;4962853;28;20031;-35
2024/01/20 05:29:30;;;;;;;30.65;13.35;;;-3.70;99.90;;;-5.02;100.00;98404.25;4965516;28;20449;-35
2024/01/20 05:31:55;;;;;;;30.10;12.88;;;-3.70;99.90;;;-5.01;100.00;98421.44;4963444;28;20117;-35
2024/01/20 05:34:21;;;;;;;27.23;13.15;;;-3.70;99.90;;;-4.97;100.00;98414.72;4963095;28;20435;-35
2024/01/20 05:36:47;;;;;;;25.35;12.30;;;-3.80;99.90;;;-5.04;100.00;98411.03;4961059;28;20034;-35
2024/01/20 05:39:13;;;;;;;29.90;13.02;;;-3.80;99.90;;;-5.13;100.00;98418.34;4965027;28;20491;-35
2024/01/20 05:41:39;;;;;;;25.13;12.07;;;-3.80;99.90;;;-5.14;100.00;98419.19;4965584;28;20049;-35
2024/01/20 05:44:05;;;;;;;27.40;13.15;;;-3.90;99.90;;;-5.15;100.00;98422.56;4965687;28;20038;-35
2024/01/20 05:46:31;;;;;;;26.80;13.15;;;-3.80;99.90;;;-5.11;100.00;98425.34;4962922;28;20038;-35
2024/01/20 05:48:56;;;;;;;26.08;12.98;;;-3.90;99.90;;;-5.25;100.00;98419.63;4963703;28;20038;-35
2024/01/20 05:51:22;;;;;;;28.15;12.80;;;-3.90;99.90;;;-5.25;100.00;98437.63;4968389;28;20498;-35
2024/01/20 05:53:48;;;;;;;30.23;13.85;;;-4.00;99.90;;;-5.29;100.00;98437.41;4966916;28;20037;-35
2024/01/20 05:56:13;;;;;;;28.15;14.65;;;-4.00;99.90;;;-5.37;100.00;98434.53;4969971;28;20070;-35
2024/01/20 05:58:39;;;;;;;31.98;13.80;;;-4.00;99.90;;;-5.37;100.00;98442.25;4979001;28;20035;-35
2024/01/20 06:01:05;;;;;;;25.25;12.88;;;-4.10;99.90;;;-5.35;100.00;98444.88;4965424;28;20376;-35
2024/01/20 06:03:30;;;;;;;31.92;14.70;;;-4.00;99.90;;;-5.42;100.00;98454.03;4968843;28;20041;-35
2024/01/20 06:05:56;;;;;;;29.45;13.50;;;-4.10;99.90;;;-5.37;100.00;98449.97;4964288;28;20031;-35
2024/01/20 06:08:22;;;;;;;29.05;14.45;;;-4.10;99.90;;;-5.39;100.00;98443.88;4967052;28;20045;-35
2024/01/20 06:10:47;;;;;;;30.50;13.55;;;-4.00;99.90;;;-5.35;100.00;98439.75;4967761;28;20113;-34
2024/01/20 06:13:13;;;;;;;31.13;14.15;;;-4.00;99.90;;;-5.40;100.00;98426.69;4974773;28;20396;-35
2024/01/20 06:15:39;;;;;;;29.77;13.65;;;-4.00;99.90;;;-5.39;100.00;98421.59;4938950;28;20049;-35
2024/01/20 06:18:04;;;;;;;27.65;13.55;;;-4.00;99.90;;;-5.31;100.00;98444.19;4949740;28;20865;-35
2024/01/20 06:20:30;;;;;;;31.60;14.07;;;-4.00;99.90;;;-5.35;100.00;98445.75;4970368;28;20386;-35
2024/01/20 06:22:56;;;;;;;35.47;14.30;;;-4.00;99.90;;;-5.38;100.00;98435.38;4964416;28;20395;-35
2024/01/20 06:25:21;;;;;;;32.50;15.43;;;-4.10;99.90;;;-5.45;100.00;98438.50;4968052;28;20803;-35
2024/01/20 06:27:47;;;;;;;31.80;13.65;;;-4.10;99.90;;;-5.52;100.00;98447.63;4969092;28;20037;-35
2024/01/20 06:30:13;;;;;;;29.08;14.93;;;-4.20;99.90;;;-5.53;100.00;98452.69;4968378;28;20409;-34
2024/01/20 06:32:39;;;;;;;29.33;14.00;;;-4.20;99.90;;;-5.61;100.00;98457.50;4967736;28;20707;-35
2024/01/20 06:35:06;;;;;;;27.67;13.65;;;-4.30;99.90;;;-5.64;100.00;98457.38;4963803;28;20164;-34
2024/01/20 06:37:32;;;;;;;28.38;13.90;;;-4.30;99.90;;;-5.64;100.00;98455.66;4969424;28;20718;-35
2024/01/20 06:39:58;;;;;;;29.75;13.55;;;-4.40;99.90;;;-5.75;100.00;98462.91;4965615;28;20430;-35
2024/01/20 06:42:23;;;;;;;30.30;14.30;;;-4.40;99.90;;;-5.70;100.00;98468.25;4966435;28;20030;-34
2024/01/20 06:44:49;;;;;;;29.20;14.43;;;-4.40;99.90;;;-5.80;100.00;98471.22;4967519;28;20402;-34
2024/01/20 06:47:15;;;;;;;35.25;15.60;;;-4.40;99.90;;;-5.72;100.00;98479.25;4964199;28;20034;-34
2024/01/20 06:49:41;;;;;;;31.00;14.00;;;-4.50;99.90;;;-5.73;100.00;98480.97;4977635;28;20037;-35
2024/01/20 06:52:07;;;;;;;26.58;13.90;;;-4.50;99.90;;;-5.70;100.00;98472.53;4953654;28;20966;-35
2024/01/20 06:54:33;;;;;;;34.03;15.43;;;-4.40;99.90;;;-5.58;100.00;98480.75;4962649;28;20037;-35
2024/01/20 06:56:58;;;;;;;31.92;14.38;;;-4.30;99.90;;;-5.52;100.00;98478.47;4974810;28;20066;-35
2024/01/20 06:59:24;;;;;;;30.35;14.45;;;-4.20;99.90;;;-5.47;100.00;98471.84;4980504;28;20080;-35
2024/01/20 07:01:50;;;;;;;33.92;15.35;;;-4.20;99.90;;;-5.58;100.00;98455.94;4977822;28;20034;-35
2024/01/20 07:04:15;;;;;;;34.15;15.77;;;-4.20;99.90;;;-5.52;100.00;98478.47;4974246;28;20039;-35
2024/01/20 07:06:41;;;;;;;31.83;14.90;;;-4.20;99.90;;;-5.66;100.00;98467.56;4977043;28;20023;-35
2024/01/20 07:09:07;;;;;;;29.27;14.35;;;-4.20;99.90;;;-5.48;100.00;98497.47;4973027;28;20073;-35
2024/01/20 07:11:33;;;;;;;27.27;13.50;;;-4.20;99.90;;;-5.42;100.00;98502.88;4968529;28;20046;-35
2024/01/20 07:13:58;;;;;;;26.42;13.50;;;-4.20;99.90;;;-5.41;100.00;98509.78;4965495;28;20043;-35
2024/01/20 07:16:24;;;;;;;28.90;14.82;;;-4.10;99.90;;;-5.45;100.00;98510.47;4967665;28;20270;-35
2024/01/20 07:18:50;;;;;;;32.40;14.45;;;-4.10;99.90;;;-5.38;100.00;98520.22;4967071;28;20490;-35
2024/01/20 07:21:16;;;;;;;30.52;13.93;;;-4.10;99.90;;;-5.29;100.00;98514.56;4964564;28;20589;-35
2024/01/20 07:23:41;;;;;;;31.50;14.02;;;-4.00;99.90;;;-5.22;100.00;98512.34;4968891;28;20050;-35
2024/01/20 07:26:08;;;;;;;27.48;13.48;;;-3.90;99.90;;;-5.09;100.00;98512.88;4965393;28;20038;-35
2024/01/20 07:28:33;;;;;;;33.30;14.73;;;-3.80;99.90;;;-5.06;100.00;98516.47;4966975;28;20739;-34
2024/01/20 07:30:59;;;;;;;28.95;13.93;;;-3.80;99.90;;;-5.00;100.00;98529.56;4976858;28;20574;-35
2024/01/20 07:33:25;;;;;;;31.52;14.73;;;-3.70;99.90;;;-4.97;100.00;98533.06;4978668;28;20717;-34
2024/01/20 07:35:50;;;;;;;31.42;16.25;;;-3.70;99.90;;;-4.97;100.00;98530.50;4977606;28;20034;-35
2024/01/20 07:38:16;;;;;;;32.90;15.88;;;-3.70;99.90;;;-4.98;100.00;98516.78;4950716;28;20038;-34
2024/01/20 07:40:42;;;;;;;31.13;13.93;;;-3.60;99.90;;;-4.83;100.00;98534.53;4966699;28;20038;-34
2024/01/20 07:43:08;;;;;;;32.40;15.30;;;-3.60;99.90;;;-4.80;100.00;98534.69;4969141;28;20176;-34
2024/01/20 07:45:33;;;;;;;28.02;13.82;;;-3.60;99.90;;;-4.74;100.00;98531.47;4960351;28;20034;-34
2024/01/20 07:48:00;;;;;;;33.63;15.73;;;-3.50;99.90;;;-4.71;100.00;98523.88;4958434;28;20152;-35
2024/01/20 07:50:25;;;;;;;36.22;16.85;;;-3.50;99.90;;;-4.68;100.00;98539.47;4977468;28;20121;-35
2024/01/20 07:52:51;;;;;;;31.77;15.13;;;-3.40;99.90;;;-4.66;100.00;98538.69;4973931;28;20068;-34
2024/01/20 07:55:17;;;;;;;33.08;14.55;;;-3.40;99.90;;;-4.62;100.00;98542.28;4967622;28;20038;-35
2024/01/20 07:57:43;;;;;;;30.33;15.18;;;-3.30;99.90;;;-4.56;100.00;98547.66;4969264;28;20022;-35
2024/01/20 08:00:13;;;;;;;28.95;14.43;;;-3.30;99.90;;;-4.51;100.00;98547.88;4973218;28;20061;-36
2024/01/20 08:02:39;;;;;;;29.27;14.52;;;-3.30;99.90;;;-4.44;100.00;98548.16;4971775;28;20066;-36
2024/01/20 08:05:05;;;;;;;27.17;14.13;;;-3.20;99.90;;;-4.34;100.00;98549.44;4975472;28;20110;-36
2024/01/20 08:07:32;;;;;;;33.92;16.00;;;-3.10;99.90;;;-4.27;100.00;98556.59;4979416;28;20034;-36
2024/01/20 08:09:58;;;;;;;32.25;15.48;;;-3.00;99.90;;;-4.21;100.00;98548.22;4968808;28;20050;-35
2024/01/20 08:12:24;;;;;;;34.70;16.30;;;-3.00;99.90;;;-4.13;100.00;98559.69;4973734;28;20027;-36
2024/01/20 08:14:50;;;;;;;34.15;16.00;;;-2.90;99.90;;;-4.30;100.00;98532.41;4975838;28;20034;-35
2024/01/20 08:17:16;;;;;;;33.05;15.27;;;-2.90;99.90;;;-4.20;100.00;98555.13;4958374;28;20792;-35
2024/01/20 08:19:42;;;;;;;33.65;15.68;;;-2.90;99.90;;;-4.23;100.00;98561.03;4973822;28;20026;-36
2024/01/20 08:22:08;;;;;;;33.65;16.90;;;-3.00;99.90;;;-4.26;100.00;98560.03;4958412;28;20038;-36
2024/01/20 08:24:33;;;;;;;31.40;15.40;;;-3.00;99.90;;;-4.17;100.00;98575.00;4979647;28;20110;-36
2024/01/20 08:26:59;;;;;;;31.42;14.55;;;-2.90;99.90;;;-4.08;100.00;98565.03;4972496;28;20046;-35
2024/01/20 08:29:25;;;;;;;32.33;15.07;;;-2.90;99.90;;;-4.05;100.00;98565.19;4977684;28;20026;-35
2024/01/20 08:31:50;;;;;;;36.70;15.93;;;-2.80;99.90;;;-3.92;100.00;98561.38;4978352;28;20707;-36
2024/01/20 08:34:16;;;;;;;34.90;17.50;;;-2.70;99.90;;;-3.96;100.00;98533.72;4975814;28;20783;-35
2024/01/20 08:36:42;;;;;;;30.60;15.88;;;-2.70;99.90;;;-3.91;100.00;98557.97;4979583;28;20022;-35
2024/01/20 08:39:07;;;;;;;34.47;15.23;;;-2.60;99.90;;;-3.86;100.00;98556.44;4976352;28;20537;-35
2024/01/20 08:41:33;;;;;;;34.13;16.08;;;-2.70;99.90;;;-4.02;100.00;98557.53;4977095;28;20034;-35
2024/01/20 08:43:59;;;;;;;32.20;16.20;;;-2.70;99.90;;;-4.01;100.00;98571.31;4976560;28;20034;-35
2024/01/20 08:46:25;;;;;;;31.55;15.45;;;-2.80;99.90;;;-4.01;100.00;98576.47;4976963;28;20667;-35
2024/01/20 08:48:51;;;;;;;34.03;16.27;;;-2.80;99.90;;;-4.03;100.00;98585.00;4978356;28;20042;-35
2024/01/20 08:51:17;;;;;;;31.33;15.63;;;-2.80;99.90;;;-3.97;100.00;98586.94;4971765;28;20040;-35
2024/01/20 08:53:43;;;;;;;31.25;15.80;;;-2.80;99.90;;;-3.92;100.00;98597.47;4962463;28;20113;-35
2024/01/20 08:56:09;;;;;;;30.63;15.43;;;-2.70;99.90;;;-3.83;100.00;98590.09;4975841;28;20022;-35
2024/01/20 08:58:34;;;;;;;33.05;15.93;;;-2.60;99.90;;;-3.79;100.00;98604.84;4975939;28;20113;-35
2024/01/20 09:01:00;;;;;;;29.85;14.82;;;-2.60;99.90;;;-3.73;100.00;98601.59;4972491;28;20035;-35
2024/01/20 09:03:26;;;;;;;32.67;14.05;;;-2.60;99.90;;;-3.71;100.00;98592.25;4977978;28;20042;-34
2024/01/20 09:05:52;;;;;;;29.45;14.25;;;-2.50;99.90;;;-3.54;100.00;98613.53;4980313;28;20392;-35
2024/01/20 09:08:18;;;;;;;28.33;14.65;;;-2.40;99.90;;;-3.59;100.00;98597.00;4955931;28;20431;-35
2024/01/20 09:10:43;;;;;;;30.25;14.65;;;-2.30;99.90;;;-3.32;100.00;98623.84;4961374;28;20511;-36
2024/01/20 09:13:09;;;;;;;29.25;14.90;;;-2.20;99.90;;;-3.30;100.00;98614.47;4974932;28;20033;-35
2024/01/20 09:15:35;;;;;;;30.85;14.77;;;-2.10;99.90;;;-3.14;100.00;98621.06;4980005;28;20022;-35
2024/01/20 09:18:01;;;;;;;30.13;15.23;;;-2.00;99.90;;;-2.98;100.00;98624.19;4978877;28;20037;-35
2024/01/20 09:20:26;;;;;;;29.92;15.60;;;-1.90;99.90;;;-2.93;100.00;98628.69;4978750;28;20038;-35
2024/01/20 09:22:52;;;;;;;31.70;16.17;;;-1.80;99.90;;;-2.89;100.00;98627.09;4976372;28;20038;-35
2024/01/20 09:25:18;;;;;;;34.72;15.38;;;-1.70;99.90;;;-2.77;100.00;98618.91;4979042;28;20134;-35
2024/01/20 09:27:44;;;;;;;32.13;15.27;;;-1.60;99.90;;;-2.69;100.00;98628.69;4986151;28;20450;-35
2024/01/20 09:30:10;;;;;;;29.52;14.90;;;-1.50;99.90;;;-2.61;100.00;98631.53;4977524;28;20292;-36
2024/01/20 09:32:36;;;;;;;31.50;15.55;;;-1.40;99.90;;;-2.56;100.00;98632.59;4980027;28;20030;-35
2024/01/20 09:35:05;;;;;;;32.25;16.75;;;-1.40;99.90;;;-2.46;100.00;98631.19;4975393;28;20077;-35
2024/01/20 09:37:30;;;;;;;31.67;15.57;;;-1.30;99.90;;;-2.53;100.00;98632.69;4982840;28;20034;-35
2024/01/20 09:39:57;;;;;;;33.75;15.38;;;-1.30;99.90;;;-2.58;100.00;98636.81;4979617;28;20096;-35
2024/01/20 09:42:23;;;;;;;29.02;15.27;;;-1.40;99.90;;;-2.58;100.00;98636.81;4980492;28;20043;-35
2024/01/20 09:44:52;;;;;;;28.45;13.52;;;-1.40;99.90;;;-2.59;100.00;98647.09;4980529;28;20042;-35
2024/01/20 09:47:18;;;;;;;29.08;14.70;;;-1.40;99.90;;;-2.57;100.00;98643.72;4974674;28;20045;-35
2024/01/20 09:49:44;;;;;;;31.02;14.90;;;-1.40;99.90;;;-2.57;100.00;98648.91;4963388;28;20034;-35
2024/01/20 09:52:15;;;;;;;32.63;15.80;;;-1.40;99.90;;;-2.53;100.00;98655.03;4979563;28;20023;-35
2024/01/20 09:55:14;;;;;;;31.23;15.73;;;-1.30;99.90;;;-2.52;100.00;98662.00;4981746;28;20107;-35